Time;durP1;ratioP1;P1;durP2;ratioP2;P2;SDS_P1;SDS_P2;PMS_P1;PMS_P2;Temp;Humidity;BMP_temperature;BMP_pressure;BME280_temperature;BME280_humidity;BME280_pressure;Samples;Min_cycle;Max_cycle;Signal;HPM_P1;HPM_P2
2022/11/27 00:02:12;;;;;;;;;;;;;;;21.33;55.06;102454.34;5099751;27;4680;-57
2022/11/27 00:04:38;;;;;;;;;;;;;;;21.34;55.11;102452.97;5105160;27;4027;-57
2022/11/27 00:07:04;;;;;;;;;;;;;;;21.33;55.32;102456.47;5098919;27;5301;-58
2022/11/27 00:09:32;;;;;;;;;;;;;;;21.31;55.05;102450.56;5097544;27;4191;-58
2022/11/27 00:11:58;;;;;;;;;;;;;;;21.31;55.44;102448.44;5102416;27;4182;-58
2022/11/27 00:14:24;;;;;;;;;;;;;;;21.30;55.04;102441.19;5103139;27;5195;-58
2022/11/27 00:16:51;;;;;;;;;;;;;;;21.30;55.09;102452.72;5102592;27;4134;-58
2022/11/27 00:19:17;;;;;;;;;;;;;;;21.29;55.19;102453.31;5103265;27;4129;-58
2022/11/27 00:21:43;;;;;;;;;;;;;;;21.29;55.26;102456.94;5106922;27;4212;-57
2022/11/27 00:24:10;;;;;;;;;;;;;;;21.28;55.04;102464.09;5105941;27;4299;-58
2022/11/27 00:26:36;;;;;;;;;;;;;;;21.27;55.00;102459.69;5105252;27;4130;-57
2022/11/27 00:29:03;;;;;;;;;;;;;;;21.27;55.08;102448.16;5108585;27;4140;-58
2022/11/27 00:31:30;;;;;;;;;;;;;;;21.29;55.07;102448.31;5110245;27;4210;-57
2022/11/27 00:33:57;;;;;;;;;;;;;;;21.29;55.20;102451.19;5103128;27;4027;-58
2022/11/27 00:36:24;;;;;;;;;;;;;;;21.31;55.40;102454.22;5110808;27;4185;-58
2022/11/27 00:38:50;;;;;;;;;;;;;;;21.30;55.22;102451.94;5111399;27;4013;-58
2022/11/27 00:41:17;;;;;;;;;;;;;;;21.30;55.27;102451.94;5101452;27;5369;-58
2022/11/27 00:43:44;;;;;;;;;;;;;;;21.29;55.18;102451.19;5109856;27;4113;-57
2022/11/27 00:46:11;;;;;;;;;;;;;;;21.30;55.55;102449.81;5105391;27;5190;-57
2022/11/27 00:48:38;;;;;;;;;;;;;;;21.30;55.17;102446.16;5108355;27;4504;-57
2022/11/27 00:51:05;;;;;;;;;;;;;;;21.27;55.17;102453.94;5102562;27;4199;-58
2022/11/27 00:53:32;;;;;;;;;;;;;;;21.27;55.28;102451.03;5097019;27;4194;-58
2022/11/27 00:55:58;;;;;;;;;;;;;;;21.26;55.31;102457.44;5116459;27;5153;-58
2022/11/27 00:58:24;;;;;;;;;;;;;;;21.25;55.26;102448.03;5109869;27;4082;-59
2022/11/27 01:00:54;;;;;;;;;;;;;;;21.23;55.49;102442.13;5111995;27;4199;-57
2022/11/27 01:03:21;;;;;;;;;;;;;;;21.22;55.23;102434.84;5109402;27;5132;-58
2022/11/27 01:05:47;;;;;;;;;;;;;;;21.22;55.29;102431.97;5104752;27;4294;-58
2022/11/27 01:08:13;;;;;;;;;;;;;;;21.22;55.55;102431.97;5114005;27;3927;-58
2022/11/27 01:10:46;;;;;;;;;;;;;;;21.23;55.49;102432.72;5115575;27;4115;-58
2022/11/27 01:13:21;;;;;;;;;;;;;;;21.22;55.30;102434.13;5112025;27;4375;-58
2022/11/27 01:15:56;;;;;;;;;;;;;;;21.21;55.23;102439.13;5114995;27;4123;-58
2022/11/27 01:18:23;;;;;;;;;;;;;;;21.21;55.48;102430.47;5115609;27;4439;-56
2022/11/27 01:20:52;;;;;;;;;;;;;;;21.20;55.29;102433.97;5121231;27;3887;-58
2022/11/27 01:23:18;;;;;;;;;;;;;;;21.18;55.48;102428.81;5106063;27;4090;-58
2022/11/27 01:25:45;;;;;;;;;;;;;;;21.20;55.34;102431.09;5104433;27;4019;-58
2022/11/27 01:28:11;;;;;;;;;;;;;;;21.19;55.34;102424.56;5112021;27;4511;-58
2022/11/27 01:30:37;;;;;;;;;;;;;;;21.18;55.27;102410.78;5106421;27;4224;-58
2022/11/27 01:33:04;;;;;;;;;;;;;;;21.18;55.27;102400.00;5108429;27;4099;-58
2022/11/27 01:35:30;;;;;;;;;;;;;;;21.17;55.40;102400.66;5102018;27;4246;-58
2022/11/27 01:37:59;;;;;;;;;;;;;;;21.17;55.36;102404.28;5101308;27;4246;-58
2022/11/27 01:40:25;;;;;;;;;;;;;;;21.16;55.28;102405.63;5108301;27;4438;-58
2022/11/27 01:42:51;;;;;;;;;;;;;;;21.16;55.31;102397.00;5110199;27;3998;-58
2022/11/27 01:45:18;;;;;;;;;;;;;;;21.14;55.46;102399.72;5109667;27;4172;-58
2022/11/27 01:47:46;;;;;;;;;;;;;;;21.14;55.51;102388.19;5110178;27;4126;-58
2022/11/27 01:50:14;;;;;;;;;;;;;;;21.15;55.36;102389.72;5106363;27;5099;-58
2022/11/27 01:52:41;;;;;;;;;;;;;;;21.13;55.38;102381.69;5105383;27;4194;-56
2022/11/27 01:55:09;;;;;;;;;;;;;;;21.14;55.38;102373.81;5087042;27;4152;-58
2022/11/27 01:57:38;;;;;;;;;;;;;;;21.14;55.33;102376.69;5111066;27;5203;-58
2022/11/27 02:00:05;;;;;;;;;;;;;;;21.12;55.46;102367.94;5104501;27;4157;-58
2022/11/27 02:02:37;;;;;;;;;;;;;;;21.12;55.41;102373.69;5106426;27;5202;-58
2022/11/27 02:05:04;;;;;;;;;;;;;;;21.12;55.12;102379.44;5105310;27;4159;-58
2022/11/27 02:07:30;;;;;;;;;;;;;;;21.11;55.17;102377.94;5112618;27;5149;-57
2022/11/27 02:09:56;;;;;;;;;;;;;;;21.10;55.19;102376.44;5101662;27;4210;-59
2022/11/27 02:12:27;;;;;;;;;;;;;;;21.10;55.39;102376.44;5097896;27;4116;-58
2022/11/27 02:14:59;;;;;;;;;;;;;;;21.10;55.38;102379.31;5083700;27;5316;-58
2022/11/27 02:17:30;;;;;;;;;;;;;;;21.08;55.05;102379.16;5106628;27;4218;-57
2022/11/27 02:20:15;;;;;;;;;;;;;;;21.08;55.04;102379.16;5059726;28;4434;-58
2022/11/27 02:22:52;;;;;;;;;;;;;;;21.08;55.23;102379.16;5105187;27;4030;-58
2022/11/27 02:25:20;;;;;;;;;;;;;;;21.08;55.12;102384.94;5084791;28;4118;-62
2022/11/27 02:27:56;;;;;;;;;;;;;;;21.07;55.11;102384.19;5080562;28;4039;-58
2022/11/27 02:30:23;;;;;;;;;;;;;;;21.07;55.07;102389.94;5091284;28;4151;-58
2022/11/27 02:32:56;;;;;;;;;;;;;;;21.07;55.08;102389.16;5098340;27;4178;-57
2022/11/27 02:35:27;;;;;;;;;;;;;;;21.06;54.96;102384.78;5097588;27;6245;-58
2022/11/27 02:37:57;;;;;;;;;;;;;;;21.05;54.90;102383.25;5087054;28;4164;-58
2022/11/27 02:40:30;;;;;;;;;;;;;;;21.04;55.12;102382.53;5084571;28;3985;-58
2022/11/27 02:43:01;;;;;;;;;;;;;;;21.04;55.01;102384.66;5077146;28;4241;-58
2022/11/27 02:45:31;;;;;;;;;;;;;;;21.04;54.96;102378.88;5084362;28;4320;-58
2022/11/27 02:47:57;;;;;;;;;;;;;;;21.03;54.93;102395.44;5083819;28;4071;-58
2022/11/27 02:50:24;;;;;;;;;;;;;;;21.03;54.92;102386.78;5098781;28;4115;-58
2022/11/27 02:52:52;;;;;;;;;;;;;;;21.02;54.76;102393.16;5079240;28;4035;-58
2022/11/27 02:55:19;;;;;;;;;;;;;;;21.01;54.91;102392.41;5101117;28;3956;-58
2022/11/27 02:57:45;;;;;;;;;;;;;;;21.00;55.00;102390.13;5080921;28;4295;-58
2022/11/27 03:00:12;;;;;;;;;;;;;;;21.00;54.76;102379.34;5094693;28;3998;-58
2022/11/27 03:02:40;;;;;;;;;;;;;;;21.00;54.82;102367.09;5100155;28;5148;-58
2022/11/27 03:05:07;;;;;;;;;;;;;;;21.00;54.74;102367.09;5066226;28;4137;-58
2022/11/27 03:07:38;;;;;;;;;;;;;;;20.98;54.74;102364.84;5100430;27;6330;-58
2022/11/27 03:10:07;;;;;;;;;;;;;;;20.99;54.82;102363.47;5084645;28;4028;-58
2022/11/27 03:12:34;;;;;;;;;;;;;;;20.98;54.74;102361.97;5087203;27;4226;-58
2022/11/27 03:15:00;;;;;;;;;;;;;;;20.97;54.97;102357.56;5106340;27;4234;-58
2022/11/27 03:17:26;;;;;;;;;;;;;;;20.97;54.73;102353.94;5107523;27;4612;-58
2022/11/27 03:19:54;;;;;;;;;;;;;;;20.97;54.54;102351.06;5102871;27;4004;-58
2022/11/27 03:22:21;;;;;;;;;;;;;;;20.98;54.48;102352.56;5095304;27;4159;-59
2022/11/27 03:24:48;;;;;;;;;;;;;;;20.96;54.68;102349.53;5088619;27;4179;-58
2022/11/27 03:27:17;;;;;;;;;;;;;;;20.96;54.68;102355.28;5100403;27;4161;-58
2022/11/27 03:29:47;;;;;;;;;;;;;;;20.93;54.77;102358.03;5092429;27;3924;-58
2022/11/27 03:32:13;;;;;;;;;;;;;;;20.96;54.46;102349.53;5103124;27;3975;-58
2022/11/27 03:34:40;;;;;;;;;;;;;;;20.97;54.55;102362.56;5094791;28;4138;-58
2022/11/27 03:37:06;;;;;;;;;;;;;;;20.99;54.55;102359.84;5104436;27;5141;-58
2022/11/27 03:39:33;;;;;;;;;;;;;;;21.00;54.51;102355.56;5109617;27;4161;-58
2022/11/27 03:42:17;;;;;;;;;;;;;;;21.02;54.44;102367.22;5116384;27;4167;-58
2022/11/27 03:44:49;;;;;;;;;;;;;;;21.06;54.35;102370.38;5093553;28;4167;-58
2022/11/27 03:47:35;;;;;;;;;;;;;;;21.08;54.41;102364.78;5097282;27;4335;-57
2022/11/27 03:50:17;;;;;;;;;;;;;;;21.10;54.30;102370.66;5113322;27;5194;-58
2022/11/27 03:52:46;;;;;;;;;;;;;;;21.11;54.41;102354.88;5102655;27;4248;-58
2022/11/27 03:55:17;;;;;;;;;;;;;;;21.11;54.50;102352.75;5100412;27;4414;-58
2022/11/27 03:57:46;;;;;;;;;;;;;;;21.11;54.51;102360.66;5095036;27;4115;-58
2022/11/27 04:00:13;;;;;;;;;;;;;;;21.12;54.39;102362.16;5111792;27;5475;-58
2022/11/27 04:02:59;;;;;;;;;;;;;;;21.11;54.37;102360.66;5086029;28;4130;-58
2022/11/27 04:05:26;;;;;;;;;;;;;;;21.12;54.64;102362.16;5108301;27;4395;-58
2022/11/27 04:07:52;;;;;;;;;;;;;;;21.12;54.56;102351.41;5103654;27;4250;-58
2022/11/27 04:10:18;;;;;;;;;;;;;;;21.15;54.86;102355.16;5105244;27;4100;-58
2022/11/27 04:12:45;;;;;;;;;;;;;;;21.15;54.49;102349.41;5114715;27;4104;-58
2022/11/27 04:15:11;;;;;;;;;;;;;;;21.16;55.07;102356.66;5105649;27;4054;-58
2022/11/27 04:17:38;;;;;;;;;;;;;;;21.17;54.60;102352.41;5091635;27;5427;-58
2022/11/27 04:20:04;;;;;;;;;;;;;;;21.19;54.91;102355.44;5098030;27;4199;-58
2022/11/27 04:22:31;;;;;;;;;;;;;;;21.18;54.96;102347.41;5097711;27;4188;-58
2022/11/27 04:24:57;;;;;;;;;;;;;;;21.18;54.66;102342.38;5108459;27;4211;-58
2022/11/27 04:27:23;;;;;;;;;;;;;;;21.18;54.91;102353.91;5103973;27;5649;-58
2022/11/27 04:29:50;;;;;;;;;;;;;;;21.19;54.58;102348.91;5103130;27;4156;-58
2022/11/27 04:32:16;;;;;;;;;;;;;;;21.16;54.43;102353.78;5102386;27;4164;-58
2022/11/27 04:34:42;;;;;;;;;;;;;;;21.13;54.81;102355.03;5106740;27;4469;-58
2022/11/27 04:37:09;;;;;;;;;;;;;;;21.15;54.92;102349.41;5102311;27;4522;-58
2022/11/27 04:39:35;;;;;;;;;;;;;;;21.18;54.69;102342.38;5096775;27;4121;-58
2022/11/27 04:42:01;;;;;;;;;;;;;;;21.21;54.65;102346.16;5108606;27;5277;-58
2022/11/27 04:44:28;;;;;;;;;;;;;;;21.22;54.62;102348.44;5104169;27;4147;-58
2022/11/27 04:46:54;;;;;;;;;;;;;;;21.22;54.59;102348.44;5103042;27;4027;-58
2022/11/27 04:49:20;;;;;;;;;;;;;;;21.24;55.01;102351.44;5108404;27;4035;-58
2022/11/27 04:51:47;;;;;;;;;;;;;;;21.22;55.04;102359.94;5093794;27;4015;-58
2022/11/27 04:54:13;;;;;;;;;;;;;;;21.23;54.94;102352.81;5105128;27;4265;-58
2022/11/27 04:56:39;;;;;;;;;;;;;;;21.22;55.04;102351.31;5110410;27;5165;-58
2022/11/27 04:59:06;;;;;;;;;;;;;;;21.22;55.32;102362.84;5108698;27;4229;-58
2022/11/27 05:01:32;;;;;;;;;;;;;;;21.21;55.29;102352.69;5106991;27;4173;-58
2022/11/27 05:03:58;;;;;;;;;;;;;;;21.22;55.35;102357.06;5101989;27;4178;-58
2022/11/27 05:06:25;;;;;;;;;;;;;;;21.22;55.28;102354.19;5107464;27;5181;-58
2022/11/27 05:08:58;;;;;;;;;;;;;;;21.21;55.62;102361.34;5104039;27;5580;-58
2022/11/27 05:11:24;;;;;;;;;;;;;;;21.22;55.20;102362.84;5106346;27;4133;-59
2022/11/27 05:14:13;;;;;;;;;;;;;;;21.23;54.89;102354.94;5101717;27;4189;-58
2022/11/27 05:16:37;;;;;;;;;;;;;;;21.23;55.49;102358.56;5102680;27;4088;-58
2022/11/27 05:19:03;;;;;;;;;;;;;;;21.23;55.27;102363.59;5106253;27;4177;-58
2022/11/27 05:21:30;;;;;;;;;;;;;;;21.22;55.50;102359.94;5100852;27;3950;-58
2022/11/27 05:23:56;;;;;;;;;;;;;;;21.23;55.33;102355.69;5106284;27;5214;-58
2022/11/27 05:26:22;;;;;;;;;;;;;;;21.22;55.32;102359.94;5097762;27;4175;-58
2022/11/27 05:28:49;;;;;;;;;;;;;;;21.23;55.43;102360.69;5100603;27;4314;-59
2022/11/27 05:31:15;;;;;;;;;;;;;;;21.23;55.22;102352.81;5087905;27;5212;-58
2022/11/27 05:33:41;;;;;;;;;;;;;;;21.23;55.49;102355.69;5103160;27;4159;-58
2022/11/27 05:36:08;;;;;;;;;;;;;;;21.24;55.43;102357.22;5107886;27;4144;-58
2022/11/27 05:38:34;;;;;;;;;;;;;;;21.24;55.48;102351.44;5098686;27;4085;-58
2022/11/27 05:41:00;;;;;;;;;;;;;;;21.26;55.35;102353.72;5097491;27;4215;-58
2022/11/27 05:43:27;;;;;;;;;;;;;;;21.26;55.36;102348.69;5104542;27;5185;-58
2022/11/27 05:45:53;;;;;;;;;;;;;;;21.27;55.50;102349.44;5099579;27;4165;-58
2022/11/27 05:48:19;;;;;;;;;;;;;;;21.26;55.25;102348.69;5107243;27;4190;-58
2022/11/27 05:50:46;;;;;;;;;;;;;;;21.25;55.22;102335.66;5096219;27;4126;-58
2022/11/27 05:53:13;;;;;;;;;;;;;;;21.25;55.46;102332.78;5093730;27;4238;-57
2022/11/27 05:55:39;;;;;;;;;;;;;;;21.26;55.39;102336.44;5102636;27;4137;-58
2022/11/27 05:58:06;;;;;;;;;;;;;;;21.21;55.33;102344.06;5099896;27;4210;-58
2022/11/27 06:00:32;;;;;;;;;;;;;;;21.21;55.37;102340.41;5103128;27;4122;-59
2022/11/27 06:02:58;;;;;;;;;;;;;;;21.19;55.59;102332.38;5102771;27;4110;-58
2022/11/27 06:05:25;;;;;;;;;;;;;;;21.20;55.35;102333.88;5092332;27;4194;-58
2022/11/27 06:07:51;;;;;;;;;;;;;;;21.20;55.79;102324.50;5090665;27;6316;-58
2022/11/27 06:10:18;;;;;;;;;;;;;;;21.24;55.49;102322.63;5107694;27;4087;-58
2022/11/27 06:12:44;;;;;;;;;;;;;;;21.25;55.20;102311.84;5099928;27;5164;-58
2022/11/27 06:15:11;;;;;;;;;;;;;;;21.25;55.50;102324.13;5096297;27;4217;-58
2022/11/27 06:17:37;;;;;;;;;;;;;;;21.26;55.39;102307.63;5104180;27;4485;-58
2022/11/27 06:20:04;;;;;;;;;;;;;;;21.26;55.28;102319.88;5107046;27;4254;-58
2022/11/27 06:22:30;;;;;;;;;;;;;;;21.25;55.38;102329.91;5098377;27;5183;-58
2022/11/27 06:24:56;;;;;;;;;;;;;;;21.24;55.44;102328.41;5110054;27;4288;-58
2022/11/27 06:27:22;;;;;;;;;;;;;;;21.26;55.31;102330.66;5108627;27;4154;-58
2022/11/27 06:29:49;;;;;;;;;;;;;;;21.25;55.15;102317.63;5099454;27;4215;-58
2022/11/27 06:32:15;;;;;;;;;;;;;;;21.27;54.92;102314.88;5105562;27;4090;-58
2022/11/27 06:34:42;;;;;;;;;;;;;;;21.28;55.02;102322.91;5104663;27;4111;-58
2022/11/27 06:37:08;;;;;;;;;;;;;;;21.28;55.19;102322.13;5100715;27;4158;-58
2022/11/27 06:39:38;;;;;;;;;;;;;;;21.29;55.26;102323.66;5097644;27;5106;-58
2022/11/27 06:42:05;;;;;;;;;;;;;;;21.30;55.14;102325.94;5102294;27;4177;-58
2022/11/27 06:44:31;;;;;;;;;;;;;;;21.29;55.06;102318.63;5103999;27;4461;-59
2022/11/27 06:46:57;;;;;;;;;;;;;;;21.29;55.30;102324.41;5103724;27;3909;-58
2022/11/27 06:49:24;;;;;;;;;;;;;;;21.28;55.09;102328.66;5109478;28;4095;-59
2022/11/27 06:51:50;;;;;;;;;;;;;;;21.28;55.06;102328.66;5107560;27;4175;-58
2022/11/27 06:54:16;;;;;;;;;;;;;;;21.28;54.89;102334.44;5107833;27;4012;-58
2022/11/27 06:56:43;;;;;;;;;;;;;;;21.27;54.85;102321.38;5105017;28;6132;-58
2022/11/27 06:59:10;;;;;;;;;;;;;;;21.26;54.94;102331.41;5106166;28;4104;-58
2022/11/27 07:01:36;;;;;;;;;;;;;;;21.26;54.96;102314.13;5087720;28;4111;-58
2022/11/27 07:04:02;;;;;;;;;;;;;;;21.27;54.88;102300.47;5101246;28;4127;-58
2022/11/27 07:06:29;;;;;;;;;;;;;;;21.27;55.11;102286.81;5101239;28;5382;-58
2022/11/27 07:08:55;;;;;;;;;;;;;;;21.28;55.24;102299.84;5113535;28;4504;-57
2022/11/27 07:11:22;;;;;;;;;;;;;;;21.27;55.01;102298.34;5113897;28;4119;-58
2022/11/27 07:13:49;;;;;;;;;;;;;;;21.28;54.84;102291.22;5097287;28;5361;-58
2022/11/27 07:16:15;;;;;;;;;;;;;;;21.28;54.96;102294.09;5092126;28;4140;-58
2022/11/27 07:18:42;;;;;;;;;;;;;;;21.30;54.92;102296.34;5101902;28;4035;-57
2022/11/27 07:21:08;;;;;;;;;;;;;;;21.30;54.89;102302.88;5108385;28;4200;-58
2022/11/27 07:23:35;;;;;;;;;;;;;;;21.29;54.77;102295.59;5100732;28;5407;-57
2022/11/27 07:26:11;;;;;;;;;;;;;;;21.30;54.96;102288.47;5103811;28;4104;-57
2022/11/27 07:28:37;;;;;;;;;;;;;;;21.31;54.84;102297.84;5102738;28;5345;-58
2022/11/27 07:31:04;;;;;;;;;;;;;;;21.30;54.77;102284.81;5098489;28;4169;-58
2022/11/27 07:33:30;;;;;;;;;;;;;;;21.27;54.74;102286.81;5102590;28;4176;-58
2022/11/27 07:36:05;;;;;;;;;;;;;;;21.30;55.06;102287.69;5110767;28;4029;-57
2022/11/27 07:38:32;;;;;;;;;;;;;;;21.29;54.92;102289.81;5088689;28;4211;-58
2022/11/27 07:40:59;;;;;;;;;;;;;;;21.28;55.19;102288.34;5088473;28;4023;-58
2022/11/27 07:43:26;;;;;;;;;;;;;;;21.29;54.79;102289.81;5092472;28;4303;-58
2022/11/27 07:45:52;;;;;;;;;;;;;;;21.28;54.66;102279.69;5093912;28;4125;-57
2022/11/27 07:48:18;;;;;;;;;;;;;;;21.31;54.90;102275.56;5094671;28;5252;-58
2022/11/27 07:50:45;;;;;;;;;;;;;;;21.36;55.05;102278.72;5097532;27;4007;-58
2022/11/27 07:53:11;;;;;;;;;;;;;;;21.37;54.93;102280.19;5089073;27;3900;-57
2022/11/27 07:55:38;;;;;;;;;;;;;;;21.37;54.94;102278.06;5079046;27;4758;-57
2022/11/27 07:58:05;;;;;;;;;;;;;;;21.38;54.77;102290.38;5098012;27;4327;-58
2022/11/27 08:00:31;;;;;;;;;;;;;;;21.36;54.71;102287.34;5110797;27;4122;-57
2022/11/27 08:02:58;;;;;;;;;;;;;;;21.37;54.79;102300.38;5107622;27;4075;-57
2022/11/27 08:05:24;;;;;;;;;;;;;;;21.37;54.91;102289.59;5090135;27;4283;-58
2022/11/27 08:07:50;;;;;;;;;;;;;;;21.38;54.81;102287.50;5081822;27;3930;-58
2022/11/27 08:10:17;;;;;;;;;;;;;;;21.36;54.93;102284.47;5100105;27;4469;-57
2022/11/27 08:12:43;;;;;;;;;;;;;;;21.36;55.01;102275.81;5102404;27;3977;-57
2022/11/27 08:15:10;;;;;;;;;;;;;;;21.37;54.89;102271.56;5104640;27;4084;-58
2022/11/27 08:17:36;;;;;;;;;;;;;;;21.37;54.80;102271.56;5102635;27;5167;-57
2022/11/27 08:20:02;;;;;;;;;;;;;;;21.36;54.68;102270.06;5097732;27;3939;-58
2022/11/27 08:22:29;;;;;;;;;;;;;;;21.34;54.64;102274.31;5102247;27;3911;-58
2022/11/27 08:24:55;;;;;;;;;;;;;;;21.34;54.61;102268.53;5106659;27;4053;-57
2022/11/27 08:27:22;;;;;;;;;;;;;;;21.34;54.75;102268.53;5093375;27;4035;-58
2022/11/27 08:29:48;;;;;;;;;;;;;;;21.33;54.62;102266.31;5091883;27;4163;-57
2022/11/27 08:32:14;;;;;;;;;;;;;;;21.33;54.79;102258.41;5103829;27;4834;-57
2022/11/27 08:34:41;;;;;;;;;;;;;;;21.30;54.61;102256.78;5116539;27;4292;-58
2022/11/27 08:37:08;;;;;;;;;;;;;;;21.32;54.37;102256.88;5114965;27;5417;-57
2022/11/27 08:39:34;;;;;;;;;;;;;;;21.32;54.17;102259.75;5104977;27;5218;-59
2022/11/27 08:42:00;;;;;;;;;;;;;;;21.32;53.87;102265.53;5102805;27;4063;-58
2022/11/27 08:44:27;;;;;;;;;;;;;;;21.30;53.90;102261.75;5104723;27;4281;-58
2022/11/27 08:46:53;;;;;;;;;;;;;;;21.30;54.04;102262.53;5103711;27;4200;-58
2022/11/27 08:49:19;;;;;;;;;;;;;;;21.32;53.28;102256.13;5107143;27;4184;-60
2022/11/27 08:51:46;;;;;;;;;;;;;;;21.32;53.34;102253.25;5108896;27;4162;-58
2022/11/27 08:54:12;;;;;;;;;;;;;;;21.32;53.27;102254.00;5102892;27;4096;-58
2022/11/27 08:56:38;;;;;;;;;;;;;;;21.32;53.41;102250.38;5093252;27;5337;-58
2022/11/27 08:59:04;;;;;;;;;;;;;;;21.38;53.81;102255.78;5101059;27;4129;-58
2022/11/27 09:01:31;;;;;;;;;;;;;;;21.41;53.61;102254.56;5098467;27;4162;-57
2022/11/27 09:03:58;;;;;;;;;;;;;;;21.40;53.79;102258.81;5106080;27;5483;-58
2022/11/27 09:06:28;;;;;;;;;;;;;;;21.40;53.75;102248.06;5100747;27;4102;-58
2022/11/27 09:08:55;;;;;;;;;;;;;;;21.41;53.70;102254.56;5104395;27;4072;-57
2022/11/27 09:11:21;;;;;;;;;;;;;;;21.41;53.65;102260.31;5104809;27;4243;-58
2022/11/27 09:13:47;;;;;;;;;;;;;;;21.39;53.74;102263.03;5095478;27;4137;-57
2022/11/27 09:16:15;;;;;;;;;;;;;;;21.38;53.59;102258.66;5107316;27;5651;-57
2022/11/27 09:18:45;;;;;;;;;;;;;;;21.39;53.85;102257.28;5099347;27;4104;-58
2022/11/27 09:21:11;;;;;;;;;;;;;;;21.36;53.83;102252.78;5095435;27;4214;-58
2022/11/27 09:23:38;;;;;;;;;;;;;;;21.36;53.73;102253.53;5082417;27;4146;-58
2022/11/27 09:26:05;;;;;;;;;;;;;;;21.38;53.88;102250.03;5094986;27;4190;-58
2022/11/27 09:28:32;;;;;;;;;;;;;;;21.40;53.47;102238.63;5096907;27;5212;-58
2022/11/27 09:30:58;;;;;;;;;;;;;;;21.41;53.37;102234.38;5096348;27;4137;-58
2022/11/27 09:33:25;;;;;;;;;;;;;;;21.42;53.53;102233.78;5092611;28;5303;-58
2022/11/27 09:35:52;;;;;;;;;;;;;;;21.43;53.55;102246.06;5096300;28;4468;-57
2022/11/27 09:38:18;;;;;;;;;;;;;;;21.43;53.58;102228.75;5100472;27;4206;-57
2022/11/27 09:40:51;;;;;;;;;;;;;;;21.40;53.76;102229.97;5103325;27;4224;-57
2022/11/27 09:43:19;;;;;;;;;;;;;;;21.40;53.71;102232.88;5114401;27;4118;-57
2022/11/27 09:45:50;;;;;;;;;;;;;;;21.38;53.63;102232.72;5097197;27;4137;-57
2022/11/27 09:48:21;;;;;;;;;;;;;;;21.39;53.71;102234.97;5104684;27;4118;-58
2022/11/27 09:50:49;;;;;;;;;;;;;;;21.38;53.63;102238.50;5088151;27;4108;-58
2022/11/27 09:53:20;;;;;;;;;;;;;;;21.38;53.63;102235.63;5084429;28;4379;-58
2022/11/27 09:55:47;;;;;;;;;;;;;;;21.38;53.54;102232.72;5088197;27;5384;-57
2022/11/27 09:58:15;;;;;;;;;;;;;;;21.38;53.63;102221.22;5100356;27;4443;-57
2022/11/27 10:00:44;;;;;;;;;;;;;;;21.38;53.53;102229.84;5087981;27;4078;-57
2022/11/27 10:03:14;;;;;;;;;;;;;;;21.36;53.46;102230.47;5099667;27;4039;-58
2022/11/27 10:05:44;;;;;;;;;;;;;;;21.34;53.86;102233.97;5097479;27;4221;-57
2022/11/27 10:08:34;;;;;;;;;;;;;;;21.33;53.61;102226.72;5083294;28;4470;-56
2022/11/27 10:11:06;;;;;;;;;;;;;;;21.34;53.63;102231.09;5078379;27;4323;-57
2022/11/27 10:13:38;;;;;;;;;;;;;;;21.37;53.80;102231.22;5098903;27;4106;-58
2022/11/27 10:16:23;;;;;;;;;;;;;;;21.37;53.78;102229.06;5107897;27;4139;-58
2022/11/27 10:18:53;;;;;;;;;;;;;;;21.40;53.95;102224.22;5093973;27;4198;-57
2022/11/27 10:21:24;;;;;;;;;;;;;;;21.40;53.63;102219.22;5084373;28;4284;-57
2022/11/27 10:23:55;;;;;;;;;;;;;;;20.34;48.32;102217.97;5089187;27;3905;-59
2022/11/27 10:26:24;;;;;;;;;;;;;;;20.69;50.10;102218.22;5075789;28;4145;-57
2022/11/27 10:29:04;;;;;;;;;;;;;;;21.03;52.26;102216.09;5092531;27;4138;-57
2022/11/27 10:31:50;;;;;;;;;;;;;;;21.19;51.05;102214.28;5084397;28;3997;-57
2022/11/27 10:34:35;;;;;;;;;;;;;;;21.27;51.98;102206.13;5095879;27;4195;-57
2022/11/27 10:37:04;;;;;;;;;;;;;;;21.29;52.32;102203.38;5092990;28;5175;-55
2022/11/27 10:39:39;;;;;;;;;;;;;;;21.33;52.49;102203.66;5091580;27;4133;-55
2022/11/27 10:42:09;;;;;;;;;;;;;;;21.37;52.74;102202.41;5079115;27;3995;-57
2022/11/27 10:44:45;;;;;;;;;;;;;;;21.38;52.75;102201.03;5074966;27;4046;-57
2022/11/27 10:47:11;;;;;;;;;;;;;;;21.38;53.10;102192.38;5087644;28;4908;-57
2022/11/27 10:49:39;;;;;;;;;;;;;;;21.40;53.46;102183.88;5093669;27;4285;-56
2022/11/27 10:52:05;;;;;;;;;;;;;;;21.41;53.39;102182.53;5098167;28;4222;-57
2022/11/27 10:54:33;;;;;;;;;;;;;;;21.42;53.49;102189.81;5088021;28;4145;-57
2022/11/27 10:57:18;;;;;;;;;;;;;;;21.42;53.95;102181.91;5097191;28;4388;-57
2022/11/27 10:59:46;;;;;;;;;;;;;;;21.42;53.78;102175.38;5097938;27;5278;-57
2022/11/27 11:02:26;;;;;;;;;;;;;;;21.40;53.79;102178.13;5094514;28;4871;-57
2022/11/27 11:04:53;;;;;;;;;;;;;;;21.41;53.87;102196.94;5100857;28;4021;-57
2022/11/27 11:07:39;;;;;;;;;;;;;;;21.41;53.98;102202.69;5096744;28;4224;-56
2022/11/27 11:10:07;;;;;;;;;;;;;;;21.41;54.24;102196.94;5094909;28;3993;-57
2022/11/27 11:12:33;;;;;;;;;;;;;;;21.41;54.12;102185.41;5077945;28;4187;-57
2022/11/27 11:15:00;;;;;;;;;;;;;;;21.42;54.01;102175.38;5098655;27;4004;-57
2022/11/27 11:17:29;;;;;;;;;;;;;;;21.42;54.19;102175.38;5098379;28;4364;-58
2022/11/27 11:19:55;;;;;;;;;;;;;;;21.40;54.03;102173.13;5097076;28;4192;-58
2022/11/27 11:22:21;;;;;;;;;;;;;;;21.44;53.83;102170.50;5102448;28;4181;-58
2022/11/27 11:24:48;;;;;;;;;;;;;;;21.45;54.04;102159.72;5102506;28;4141;-58
2022/11/27 11:27:16;;;;;;;;;;;;;;;21.45;54.19;102163.34;5099525;27;4182;-57
2022/11/27 11:29:45;;;;;;;;;;;;;;;21.45;54.16;102163.34;5103739;27;4115;-57
2022/11/27 11:32:15;;;;;;;;;;;;;;;21.46;54.16;102158.34;5100580;27;5294;-60
2022/11/27 11:34:42;;;;;;;;;;;;;;;21.49;54.41;102151.34;5090367;27;4062;-59
2022/11/27 11:37:17;;;;;;;;;;;;;;;21.50;55.69;102152.81;5089988;27;5351;-60
2022/11/27 11:39:44;;;;;;;;;;;;;;;21.54;55.42;102141.56;5105649;27;4139;-59
2022/11/27 11:42:17;;;;;;;;;;;;;;;21.55;55.92;102137.28;5120283;27;5414;-59
2022/11/27 11:44:45;;;;;;;;;;;;;;;21.55;55.92;102143.03;5086587;27;4111;-60
2022/11/27 11:47:17;;;;;;;;;;;;;;;21.54;56.00;102147.31;5106505;27;5434;-60
2022/11/27 11:49:44;;;;;;;;;;;;;;;21.58;55.87;102141.03;5068335;27;4127;-58
2022/11/27 11:52:20;;;;;;;;;;;;;;;20.74;49.87;102145.13;5105803;27;5342;-58
2022/11/27 11:54:49;;;;;;;;;;;;;;;20.98;51.54;102142.31;5076923;27;4118;-58
2022/11/27 11:57:18;;;;;;;;;;;;;;;21.25;54.91;102145.50;5095822;27;5289;-58
2022/11/27 11:59:48;;;;;;;;;;;;;;;21.40;53.94;102137.78;5107776;27;5184;-57
2022/11/27 12:02:37;;;;;;;;;;;;;;;21.46;54.29;102136.06;5105269;27;4161;-57
2022/11/27 12:05:14;;;;;;;;;;;;;;;21.49;54.62;102131.91;5115729;27;4190;-58
2022/11/27 12:07:59;;;;;;;;;;;;;;;21.53;54.65;102128.50;5116254;27;4117;-59
2022/11/27 12:10:47;;;;;;;;;;;;;;;21.54;54.77;102127.16;5102197;27;5279;-57
2022/11/27 12:13:33;;;;;;;;;;;;;;;21.56;55.10;102115.75;5088354;27;4241;-58
2022/11/27 12:16:12;;;;;;;;;;;;;;;21.56;55.33;102109.97;5108688;27;5232;-57
2022/11/27 12:18:44;;;;;;;;;;;;;;;21.54;54.66;102096.19;5101854;27;4093;-58
2022/11/27 12:21:14;;;;;;;;;;;;;;;21.56;55.01;102098.44;5087471;27;4157;-58
2022/11/27 12:23:58;;;;;;;;;;;;;;;21.54;55.23;102090.41;5104825;27;6331;-58
2022/11/27 12:26:43;;;;;;;;;;;;;;;21.54;55.02;102089.69;5101579;27;5527;-58
2022/11/27 12:29:29;;;;;;;;;;;;;;;21.56;55.28;102089.06;5105289;27;5424;-58
2022/11/27 12:32:14;;;;;;;;;;;;;;;21.54;55.14;102078.16;5089461;27;5257;-58
2022/11/27 12:34:45;;;;;;;;;;;;;;;21.54;55.32;102072.38;5099914;27;4156;-58
2022/11/27 12:37:11;;;;;;;;;;;;;;;21.51;55.16;102062.88;5101161;27;5281;-58
2022/11/27 12:39:53;;;;;;;;;;;;;;;21.54;55.24;102066.63;5103350;27;5075;-58
2022/11/27 12:42:22;;;;;;;;;;;;;;;21.55;55.19;102062.34;5086159;27;4279;-58
2022/11/27 12:44:54;;;;;;;;;;;;;;;21.54;54.99;102052.94;5098739;27;4183;-58
2022/11/27 12:47:39;;;;;;;;;;;;;;;21.59;55.40;102059.72;5083422;28;5168;-58
2022/11/27 12:50:14;;;;;;;;;;;;;;;21.52;54.88;102054.97;5105580;27;4224;-58
2022/11/27 12:52:42;;;;;;;;;;;;;;;21.43;52.79;102050.09;5086431;27;5201;-57
2022/11/27 12:55:14;;;;;;;;;;;;;;;21.37;53.78;102053.31;5102150;27;3992;-58
2022/11/27 12:57:58;;;;;;;;;;;;;;;21.41;53.65;102044.19;5085851;27;5355;-58